createdAt,value
2019-04-23T00:00:56.335Z,5.93
2019-04-23T00:03:30.294Z,7.50
2019-04-23T00:06:02.374Z,2.43
2019-04-23T00:08:25.779Z,4.97
2019-04-23T00:10:59.064Z,7.80
2019-04-23T00:13:30.305Z,4.00
2019-04-23T00:16:13.997Z,3.13
2019-04-23T00:18:49.481Z,3.83
2019-04-23T00:21:23.516Z,3.90
2019-04-23T00:23:53.345Z,3.60
2019-04-23T00:26:25.602Z,5.97
2019-04-23T00:28:58.941Z,9.83
2019-04-23T00:31:39.234Z,2.60
2019-04-23T00:33:57.714Z,9.33
2019-04-23T00:38:54.005Z,9.00
2019-04-23T00:41:33.364Z,6.63
2019-04-23T00:44:15.188Z,7.33
2019-04-23T00:49:07.416Z,6.70
2019-04-23T00:51:32.050Z,4.33
2019-04-23T00:54:08.037Z,11.63
2019-04-23T00:59:08.308Z,3.67
2019-04-23T01:01:42.752Z,3.77
2019-04-23T01:04:08.031Z,4.40
2019-04-23T01:06:37.814Z,6.63
2019-04-23T01:09:10.425Z,8.80
2019-04-23T01:11:44.848Z,2.80
2019-04-23T01:14:13.670Z,6.83
2019-04-23T01:16:42.505Z,5.27
2019-04-23T01:19:31.705Z,6.40
2019-04-23T01:21:38.861Z,5.23
2019-04-23T01:24:29.731Z,2.60
2019-04-23T01:27:49.206Z,7.10
2019-04-23T01:30:10.116Z,6.17
2019-04-23T01:32:38.287Z,2.50
2019-04-23T01:37:41.195Z,6.40
2019-04-23T01:45:19.800Z,3.40
2019-04-23T01:47:50.049Z,3.70
2019-04-23T01:50:22.838Z,5.70
2019-04-23T01:53:14.950Z,6.13
2019-04-23T01:55:31.529Z,18.87
2019-04-23T02:03:10.909Z,6.83
2019-04-23T02:05:27.513Z,8.27
2019-04-23T02:08:11.080Z,7.90
2019-04-23T02:10:44.350Z,3.60
2019-04-23T02:13:16.674Z,5.87
2019-04-23T02:15:42.451Z,8.17
2019-04-23T02:20:49.744Z,5.73
2019-04-23T02:23:24.933Z,5.97
2019-04-23T02:26:10.737Z,4.70
2019-04-23T02:28:47.603Z,4.30
2019-04-23T02:33:43.890Z,9.17
2019-04-23T02:36:11.262Z,5.40
2019-04-23T02:41:09.025Z,3.43
2019-04-23T02:43:59.197Z,6.93
2019-04-23T02:46:08.140Z,4.50
2019-04-23T02:48:44.367Z,8.33
2019-04-23T02:51:10.946Z,5.33
2019-04-23T02:53:53.522Z,8.53
2019-04-23T02:56:21.554Z,8.60
2019-04-23T03:06:18.912Z,6.07
2019-04-23T03:09:09.826Z,5.07
2019-04-23T03:11:26.184Z,5.83
2019-04-23T03:13:54.235Z,11.50
2019-04-23T03:19:00.664Z,11.50
2019-04-23T03:21:52.848Z,5.33
2019-04-23T03:27:16.544Z,4.37
2019-04-23T03:37:23.342Z,6.95
2019-04-23T03:42:38.647Z,9.68
2019-04-23T03:47:31.989Z,4.17
2019-04-23T03:49:56.165Z,6.45
2019-04-23T03:54:49.220Z,8.25
2019-04-23T03:57:24.793Z,6.15
2019-04-23T04:00:05.820Z,6.85
2019-04-23T04:04:51.877Z,7.97
2019-04-23T04:10:08.725Z,6.00
2019-04-23T04:12:29.930Z,6.05
2019-04-23T04:17:26.698Z,6.42
2019-04-23T04:22:37.458Z,11.78
2019-04-23T04:30:12.394Z,7.55
2019-04-23T04:32:36.618Z,6.30
2019-04-23T04:35:18.835Z,20.20
2019-04-23T04:40:18.148Z,9.43
2019-04-23T04:45:14.288Z,18.50
2019-04-23T04:47:42.499Z,10.32
2019-04-23T04:52:50.859Z,9.23
2019-04-23T04:55:12.028Z,8.75
2019-04-23T05:03:04.452Z,9.60
2019-04-23T05:10:25.232Z,13.28
2019-04-23T05:12:54.998Z,12.85
2019-04-23T05:18:08.116Z,7.80
2019-04-23T05:23:06.110Z,8.53
2019-04-23T05:25:31.766Z,11.28
2019-04-23T05:28:07.897Z,9.35
2019-04-23T05:30:39.737Z,9.20
2019-04-23T05:36:04.987Z,12.30
2019-04-23T05:40:45.325Z,12.68
2019-04-23T05:43:12.376Z,15.83
2019-04-23T05:45:51.156Z,17.75
2019-04-23T05:53:42.446Z,11.73
2019-04-23T05:55:55.378Z,10.33
2019-04-23T05:58:28.624Z,11.90
2019-04-23T06:01:41.689Z,18.30
2019-04-23T06:03:58.149Z,13.95
2019-04-23T06:08:58.636Z,10.23
2019-04-23T06:11:39.750Z,10.87
2019-04-23T06:14:06.338Z,17.63
2019-04-23T06:16:41.185Z,12.03
2019-04-23T06:19:07.697Z,16.70
2019-04-23T06:21:44.764Z,11.67
2019-04-23T06:24:16.308Z,12.57
2019-04-23T06:31:44.023Z,14.43
2019-04-23T06:34:16.631Z,14.60
2019-04-23T06:36:46.593Z,13.27
2019-04-23T06:39:17.726Z,16.73
2019-04-23T06:41:50.188Z,11.60
2019-04-23T06:44:32.217Z,12.53
2019-04-23T06:47:01.727Z,23.60
2019-04-23T06:49:27.076Z,11.67
2019-04-23T06:54:37.429Z,14.37
2019-04-23T06:59:37.265Z,11.53
2019-04-23T07:04:43.390Z,21.60
2019-04-23T07:07:31.403Z,11.77
2019-04-23T07:09:42.407Z,18.80
2019-04-23T07:12:19.886Z,14.40
2019-04-23T07:17:13.549Z,29.37
2019-04-23T07:19:46.701Z,11.33
2019-04-23T07:22:21.581Z,11.13
2019-04-23T07:24:49.134Z,13.27
2019-04-23T07:30:03.933Z,10.80
2019-04-23T07:32:38.918Z,15.10
2019-04-23T07:35:16.051Z,15.60
2019-04-23T07:37:43.188Z,15.67
2019-04-23T07:43:08.761Z,13.90
2019-04-23T07:45:54.830Z,14.00
2019-04-23T07:48:23.837Z,18.93
2019-04-23T07:50:52.012Z,13.87
2019-04-23T07:56:02.140Z,12.90
2019-04-23T07:58:30.385Z,16.90
2019-04-23T08:01:00.985Z,14.53
2019-04-23T08:03:29.021Z,13.30
2019-04-23T08:06:00.566Z,12.90
2019-04-23T08:08:33.305Z,19.27
2019-04-23T08:13:53.398Z,15.57
2019-04-23T08:21:19.283Z,18.67
2019-04-23T08:24:10.662Z,16.73
2019-04-23T08:26:59.173Z,15.97
2019-04-23T08:32:12.311Z,16.57
2019-04-23T08:42:33.082Z,17.90
2019-04-23T08:55:49.562Z,13.60
2019-04-23T08:58:25.882Z,12.60
2019-04-23T09:03:25.141Z,14.37
2019-04-23T09:06:00.768Z,12.33
2019-04-23T09:08:27.849Z,17.60
2019-04-23T09:11:05.119Z,13.53
2019-04-23T09:13:52.288Z,19.50
2019-04-23T09:21:02.136Z,24.17
2019-04-23T09:28:41.939Z,12.73
2019-04-23T09:31:18.698Z,13.20
2019-04-23T09:33:52.162Z,20.73
2019-04-23T09:36:37.841Z,20.90
2019-04-23T09:39:15.370Z,20.07
2019-04-23T09:42:09.151Z,17.37
2019-04-23T09:44:58.506Z,15.60
2019-04-23T09:47:41.431Z,15.93
2019-04-23T09:50:12.371Z,16.97
2019-04-23T09:52:46.671Z,13.60
2019-04-23T09:55:15.481Z,18.73
2019-04-23T09:57:46.604Z,17.23
2019-04-23T10:00:16.996Z,12.77
2019-04-23T10:02:34.299Z,15.53
2019-04-23T10:05:04.076Z,19.70
2019-04-23T10:07:30.030Z,14.47
2019-04-23T10:09:51.769Z,12.73
2019-04-23T10:12:24.110Z,21.93
2019-04-23T10:15:07.220Z,15.70
2019-04-23T10:17:28.479Z,13.13
2019-04-23T10:19:58.342Z,13.73
2019-04-23T10:22:29.476Z,23.30
2019-04-23T10:24:59.485Z,16.03
2019-04-23T10:27:29.521Z,13.27
2019-04-23T10:29:59.606Z,14.00
2019-04-23T10:32:29.798Z,12.60
2019-04-23T10:35:11.911Z,17.83
2019-04-23T10:37:36.825Z,18.03
2019-04-23T10:40:05.401Z,11.00
2019-04-23T10:42:35.874Z,19.03
2019-04-23T10:45:40.882Z,23.53
2019-04-23T10:51:18.086Z,19.17
2019-04-23T10:56:40.805Z,9.77
2019-04-23T10:59:27.222Z,15.43
2019-04-23T11:02:15.871Z,12.37
2019-04-23T11:07:26.930Z,11.17
2019-04-23T11:09:53.066Z,14.07
2019-04-23T11:12:24.538Z,19.27
2019-04-23T11:14:53.418Z,24.83
2019-04-23T11:17:30.628Z,22.20
2019-04-23T11:22:36.137Z,13.87
2019-04-23T11:24:50.097Z,9.70
2019-04-23T11:27:22.172Z,10.90
2019-04-23T11:32:44.137Z,11.93
2019-04-23T11:37:36.345Z,14.00
2019-04-23T11:42:26.199Z,15.40
2019-04-23T11:44:56.502Z,16.23
2019-04-23T11:48:14.700Z,9.83
2019-04-23T11:50:25.356Z,14.90
2019-04-23T11:52:35.567Z,18.73
2019-04-23T11:55:03.167Z,11.13
2019-04-23T12:00:09.813Z,18.50
2019-04-23T12:03:02.454Z,11.80
2019-04-23T12:05:58.263Z,19.27
2019-04-23T12:08:37.834Z,13.20
2019-04-23T12:11:51.990Z,24.80
2019-04-23T12:14:06.169Z,20.13
2019-04-23T12:16:43.198Z,26.00
2019-04-23T12:19:25.405Z,12.17
2019-04-23T12:21:41.146Z,15.43
2019-04-23T12:24:29.101Z,13.20
2019-04-23T12:26:56.252Z,15.40
2019-04-23T12:29:13.964Z,13.03
2019-04-23T12:31:38.296Z,17.33
2019-04-23T12:34:14.957Z,15.73
2019-04-23T12:37:09.511Z,13.97
2019-04-23T12:39:32.974Z,11.27
2019-04-23T12:42:19.734Z,25.43
2019-04-23T12:44:38.780Z,14.40
2019-04-23T12:47:17.215Z,28.70
2019-04-23T12:49:57.759Z,18.03
2019-04-23T12:52:11.605Z,16.43
2019-04-23T12:57:29.970Z,18.07
2019-04-23T12:59:44.364Z,12.60
2019-04-23T13:04:49.041Z,14.47
2019-04-23T13:07:17.782Z,14.10
2019-04-23T13:09:52.495Z,19.70
2019-04-23T13:12:33.260Z,13.03
2019-04-23T13:14:58.666Z,20.87
2019-04-23T13:17:29.687Z,17.10
2019-04-23T13:19:58.246Z,20.90
2019-04-23T13:22:31.862Z,11.17
2019-04-23T13:25:32.572Z,16.10
2019-04-23T13:28:01.984Z,18.60
2019-04-23T13:33:02.664Z,14.83
2019-04-23T13:40:39.071Z,11.90
2019-04-23T13:43:08.852Z,22.10
2019-04-23T13:45:56.443Z,13.97
2019-04-23T13:50:47.509Z,13.50
2019-04-23T13:55:34.655Z,17.03
2019-04-23T14:03:09.674Z,19.13
2019-04-23T14:06:01.216Z,19.00
2019-04-23T14:11:03.640Z,14.70
2019-04-23T14:18:51.613Z,21.07
2019-04-23T14:21:14.163Z,13.70
2019-04-23T14:26:18.829Z,24.97
2019-04-23T14:28:41.846Z,17.73
2019-04-23T14:31:13.080Z,21.77
2019-04-23T14:36:17.681Z,14.87
2019-04-23T14:43:57.888Z,17.40
2019-04-23T14:46:38.777Z,26.90
2019-04-23T14:49:04.196Z,16.90
2019-04-23T14:53:48.113Z,18.23
2019-04-23T14:56:35.533Z,13.30
2019-04-23T14:59:07.780Z,24.27
2019-04-23T15:02:02.369Z,15.10
2019-04-23T15:04:14.692Z,19.27
2019-04-23T15:06:52.059Z,11.83
2019-04-23T15:09:22.284Z,13.40
2019-04-23T15:14:16.844Z,17.27
2019-04-23T15:19:40.247Z,15.53
2019-04-23T15:22:05.257Z,20.37
2019-04-23T15:24:27.732Z,15.13
2019-04-23T15:29:12.731Z,14.60
2019-04-23T15:34:23.171Z,19.30
2019-04-23T15:39:32.698Z,13.47
2019-04-23T15:42:06.211Z,30.73
2019-04-23T15:44:42.017Z,28.23
2019-04-23T15:47:19.335Z,16.20
2019-04-23T15:49:45.791Z,10.57
2019-04-23T15:52:27.308Z,12.87
2019-04-23T15:54:51.491Z,13.73
2019-04-23T15:57:41.809Z,12.83
2019-04-23T15:59:53.397Z,10.63
2019-04-23T16:01:50.364Z,15.30
2019-04-23T16:04:20.609Z,13.43
2019-04-23T16:06:50.059Z,18.20
2019-04-23T16:09:59.843Z,19.00
2019-04-23T16:12:25.343Z,18.50
2019-04-23T16:17:32.678Z,30.93
2019-04-23T16:20:33.416Z,9.70
2019-04-23T16:22:51.071Z,25.83
2019-04-23T16:25:20.381Z,16.07
2019-04-23T16:28:04.084Z,10.90
2019-04-23T16:30:31.367Z,15.00
2019-04-23T16:38:38.348Z,12.47
2019-04-23T16:41:07.655Z,17.63
2019-04-23T16:43:44.047Z,11.90
2019-04-23T16:46:07.381Z,12.67
2019-04-23T16:51:25.207Z,14.87
2019-04-23T16:53:59.219Z,12.10
2019-04-23T16:56:39.936Z,26.70
2019-04-23T16:58:44.593Z,34.00
2019-04-23T17:01:20.724Z,22.30
2019-04-23T17:09:24.594Z,18.10
2019-04-23T17:13:50.969Z,14.23
2019-04-23T17:21:18.100Z,25.07
2019-04-23T17:28:51.809Z,16.13
2019-04-23T17:33:59.218Z,22.23
2019-04-23T17:42:01.711Z,24.50
2019-04-23T17:44:24.174Z,19.63
2019-04-23T17:46:54.080Z,11.40
2019-04-23T17:49:35.289Z,16.40
2019-04-23T17:51:50.973Z,18.40
2019-04-23T17:54:24.607Z,22.10
2019-04-23T17:57:01.520Z,26.13
2019-04-23T17:59:53.613Z,17.10
2019-04-23T18:02:39.903Z,22.10
2019-04-23T18:04:56.851Z,15.40
2019-04-23T18:07:23.456Z,19.93
2019-04-23T18:09:47.904Z,14.83
2019-04-23T18:12:22.422Z,24.73
2019-04-23T18:14:43.973Z,14.63
2019-04-23T18:20:04.993Z,17.47
2019-04-23T18:22:37.334Z,18.10
2019-04-23T18:27:48.456Z,12.93
2019-04-23T18:30:26.213Z,16.90
2019-04-23T18:35:29.829Z,17.63
2019-04-23T18:40:54.693Z,15.13
2019-04-23T18:43:20.177Z,16.50
2019-04-23T18:45:44.878Z,17.63
2019-04-23T18:51:03.291Z,17.73
2019-04-23T18:58:54.477Z,17.90
2019-04-23T19:01:23.204Z,15.90
2019-04-23T19:04:09.885Z,12.90
2019-04-23T19:06:38.252Z,19.30
2019-04-23T19:09:47.770Z,16.50
2019-04-23T19:12:29.956Z,17.13
2019-04-23T19:19:55.555Z,15.97
2019-04-23T19:25:01.716Z,23.77
2019-04-23T19:27:45.903Z,19.50
2019-04-23T19:30:17.629Z,24.90
2019-04-23T19:32:49.302Z,27.43
2019-04-23T19:35:33.551Z,12.93
2019-04-23T19:40:14.123Z,16.57
2019-04-23T19:42:52.375Z,21.53
2019-04-23T19:45:24.818Z,15.70
2019-04-23T19:47:56.808Z,16.73
2019-04-23T19:50:29.798Z,22.03
2019-04-23T19:53:03.960Z,16.30
2019-04-23T19:55:17.463Z,20.30
2019-04-23T19:57:58.033Z,14.87
2019-04-23T20:00:17.908Z,13.77
2019-04-23T20:03:12.950Z,21.70
2019-04-23T20:05:21.703Z,22.47
2019-04-23T20:08:16.888Z,16.97
2019-04-23T20:10:30.048Z,20.77
2019-04-23T20:12:51.826Z,20.23
2019-04-23T20:15:44.380Z,34.23
2019-04-23T20:18:33.569Z,18.90
2019-04-23T20:20:55.002Z,19.03
2019-04-23T20:23:52.260Z,21.03
2019-04-23T20:32:30.554Z,20.73
2019-04-23T20:36:38.845Z,14.67
2019-04-23T20:39:07.262Z,19.43
2019-04-23T20:42:07.810Z,14.80
2019-04-23T20:49:40.139Z,13.63
2019-04-23T20:52:07.362Z,17.97
2019-04-23T20:54:42.124Z,31.63
2019-04-23T20:57:33.771Z,23.73
2019-04-23T21:05:15.053Z,18.63
2019-04-23T21:07:52.235Z,16.90
2019-04-23T21:12:50.149Z,24.87
2019-04-23T21:15:12.048Z,19.97
2019-04-23T21:17:55.800Z,21.80
2019-04-23T21:22:52.297Z,16.60
2019-04-23T21:25:09.443Z,26.80
2019-04-23T21:27:55.482Z,17.37
2019-04-23T21:30:41.406Z,22.53
2019-04-23T21:33:07.371Z,20.07
2019-04-23T21:36:05.005Z,22.53
2019-04-23T21:38:38.078Z,20.60
2019-04-23T21:41:39.416Z,15.37
2019-04-23T21:44:05.612Z,15.87
2019-04-23T21:46:24.053Z,19.70
2019-04-23T21:51:31.883Z,21.70
2019-04-23T21:56:26.132Z,16.97
2019-04-23T22:01:32.249Z,18.90
2019-04-23T22:04:17.669Z,27.57
2019-04-23T22:09:12.460Z,19.53
2019-04-23T22:11:48.265Z,18.60
2019-04-23T22:16:37.145Z,24.70
2019-04-23T22:24:54.575Z,21.60
2019-04-23T22:26:35.252Z,23.67
2019-04-23T22:29:14.061Z,24.10
2019-04-23T22:34:22.048Z,22.03
2019-04-23T22:36:39.297Z,29.77
2019-04-23T22:39:10.097Z,19.27
2019-04-23T22:41:55.924Z,20.00
2019-04-23T22:44:12.831Z,18.60
2019-04-23T22:46:53.525Z,21.90
2019-04-23T22:54:13.969Z,34.43
2019-04-23T23:02:29.076Z,19.53
2019-04-23T23:05:07.314Z,20.30
2019-04-23T23:07:28.578Z,22.33
2019-04-23T23:10:00.974Z,29.93
2019-04-23T23:12:34.139Z,19.10
2019-04-23T23:15:02.817Z,22.93
2019-04-23T23:17:31.030Z,34.07
2019-04-23T23:20:08.752Z,21.93
2019-04-23T23:22:29.096Z,22.77
2019-04-23T23:25:13.405Z,23.63
2019-04-23T23:27:41.376Z,21.10
2019-04-23T23:32:47.667Z,24.20
2019-04-23T23:35:14.607Z,34.33
2019-04-23T23:37:34.338Z,19.73
2019-04-23T23:42:42.754Z,21.63
2019-04-23T23:45:21.629Z,19.17
2019-04-23T23:47:46.686Z,15.47
2019-04-23T23:50:19.497Z,27.70
2019-04-23T23:53:02.711Z,25.17
2019-04-23T23:55:16.500Z,27.63
2019-04-23T23:57:50.293Z,24.00
